Scroll down
FLIGHT INFORMATION
American Airlines

AAL3419

At Arrival Gate

KTUS
 KORD
DATE: 2020-06-06
GATE:  -
GATE DEPARTURE: 19:16
TAKEOFF: 19:23
DATE: 2020-06-06
GATE:  -
LANDING: 22:15
GATE ARRIVAL: 22:21
FLIGHT DATA
Crew: 
Speed: 
477 kts
Altitude: 
37,041 ft
Stage Length: 
1,247.0 nm
Block Time: 
3.1 hrs
Flight Time: 
2.9 hrs
Fuel Used: 
17,608 lb
Cleared Route: KTUS BURRO VEYLE MESCA NOCHI SSO WOBUG GREBE TMACK ONM FTI KENTO DRAWL GCK SLN AGENT KIDER IRK LOAMY KEOKK DRAMS RYELY BDF BYLAW BENKY NEWRK AHSTN PETAH JORJO MONKZ TONIE RRUDA RW10C
TRACK DATA
50,000 ft 1,000 kts
AIRCRAFT INFO AND CUMULATIVE STATS
Aircraft Type: 
B738BW
Registration: 
SELCAL: 
CKAG
MSN/LN: 
33322 / 4489
Operator: 
Total Flights: 
25
Total Block Time: 
50.2 hrs
Total Flight Time: 
44.5 hrs
Total Fuel Time: 
283,020 lb
DATALINK LOG | Newest first | Current as of: 2020-12-06 00:43:09
LABEL SEQUENCE CONTENT Dn/Up
QD232622:21 14.5▼ Dn
QC161922:15▼ Dn
2U0252KORD 062151Z 06011KT 10SM FEW250 22/09 A3007 RMK AO2 SLP181 T02220094 $▲ Up
2S0307KORD▼ Dn
QB253219:23▼ Dn
QA172419:16 32.2▼ Dn
2U1348KTUS 061853Z 25006KT 10SM CLR 31/M02 A2991 RMK AO2 SLP075 T03061017▲ Up
2S1421KTUS▼ Dn
A35007CLEARED TO KORD VIA BURRO4 NOCHI SSO J104 FTI J18 GCK J96 IRK BENKY5. SQUAWK 6170.▲ Up
5U4829KORD 062236Z 04012KT 10SM FEW120 23/09 A3008▲ Up
2U4826KTUS 061753Z VRB03KT 10SM CLR 28/01 A2992 RMK AO2 SLP082 T02830006 10283 20206 50001▲ Up
5S5004KORD▼ Dn
2S5004KTUS▼ Dn
Q04856[LINK ACK]▲ Up
Q04856[LINK TEST]▼ Dn


AIRCRAFT HISTORY
FLIGHT DATE FLIGHT NO. ORIGIN DESTINATION CLEARED ROUTE BLOCK TIME FLIGHT TIME FUEL USED PILOT
2020-10-06AAL2584KTPA KMIA KTPA BAARY CYY DEEDS SSCOT RUBOE WALIP LECIT COPRA RW08R0.9 hrs0.7 hrs5,092 lbMichael Collier
2020-10-04AAL1538KORD KTPA 2.5 hrs2.3 hrs13,779 lbGeorge M
2020-10-04AAL5881KSDF KORD 1.2 hrs0.8 hrs6,696 lbGeorge M
2020-10-04AAL5927KDFW KSDF 1.9 hrs1.7 hrs10,291 lbGeorge M
2020-10-04AAL1765KPHX KDFW 2.3 hrs2 hrs12,952 lbGeorge M
2020-10-04AAL625KSAN KPHX KSAN IPL HEEDS BZA HOGGZ KPHX1.1 hrs0.8 hrs5,934 lbGeorge M
2020-10-04AAL438KPHX KSAN KPHX MOHAK HOGGZ KSAN1.3 hrs1 hrs7,265 lbZsolt Szivak
2020-10-03AAL2352KDFW KPHX 2.3 hrs2 hrs12,217 lbGeorge M
2020-10-03AAL2232KSTL KDFW 1.8 hrs1.5 hrs10,678 lbGeorge M
2020-10-03AAL4182KORD KSTL KORD BACEN BLOKR RBS JARKE BASCO GORDO WLDBL HONKK AARCH PETTI KRIYA JAAKK CHOTO GETEE HRBEE BUELL NAIRN RW12R1.1 hrs0.8 hrs5,878 lbGeorge M
2020-10-02AAL3845KSDF KORD 1.1 hrs0.9 hrs6,755 lbGeorge M
2020-10-02AAL4483KORD KSDF KORD DENNT DARCY DREGS DONVE RAMSE SUSZE UNCOD FRIZN HONOS SPYRS BLGRS RW17R1 hrs0.7 hrs5,499 lbGeorge M
2020-09-29AAL2879KDFW KORD KDFW CUZEN ITTTT AKUNA TIKYS MLC SGF WELTS MCDEE CASHN VINCA MAROC TRICH TRTLL HIHRY RINNO JORJO MONKZ TONIE HAZIL RW28C2.3 hrs2.1 hrs12,733 lbGeorge M
2020-09-27AAL2536KMSY KDFW KMSY AEX PNUTS CLEWS POPSY MUZZY BEREE BELLS TACKE WARDZ DIETZ WHOOT HEDMN ZINGG RW17C1.5 hrs1.2 hrs8,237 lbMichael Collier
2020-09-26AAL2536KDFW KMSY KDFW TREXX JOLEN THHOR JJANE MRSSH ZALEA SWB LSU AWDAD VOODO TURTL RW111.4 hrs1.1 hrs7,965 lbMichael Collier
2020-08-03AAL352KSJC KDFW KSJC MLPTS SPTNS TECKY SJC BMRNG SYRAH JSICA ILC KU48O KD45Q KD42S KA39U MIRME PNH KF27A MDANO KDFW3.3 hrs3 hrs18,215 lbMichael Roth
2020-08-02AAL2735KDFW KSJC KDFW HAZKL TULUY HUNNT TYGGR DBLSS HRPER HULZE TXO MIERA ABQ LORAT GUP DILCO HMFRY BAVPE CUTRO PGS BLD BTY RUSME KSJC3.5 hrs3.2 hrs17,493 lbMichael Roth
2020-07-10AAL244KFLL KDFW KFLL THNDR JAYMC DOLIE SRQ JONBU CHRGE REMIS ROZZI NAITE REDFN FATSO HRV PEBBY AEX PNUTS KDFW2.7 hrs2.4 hrs14,399 lbMichael Roth
2020-07-09AAL1402KORD KFLL KORD DENNT DARCY DREGS DUMGE SCOTO SWAPP ATL YUESS IISLY EVANZ DOFFY BALKE KFLL2.9 hrs2.6 hrs15,899 lbMichael Roth
2020-06-27AAL3610KMSP KORD KMSP RST ZZIPR WELCM TEEOO MITEE BHAWK STNLE CUUPP CHMPN CLSBY FYTTE MOTRR COGSS MADII SOOLU JORJO MONKZ TONIE HAZIL RW28C1.3 hrs1 hrs7,082 lbGeorge M
2020-06-27AAL302KORD KMSP KORD PMPKN NEATO DLLAN RONIC KAMMA BEERI ROBBY KBULL ZZING HENDR CMAAC KKILR HUGGI KRISP AFTYN CMMOE COZZZ HAMML RW12L1.2 hrs1 hrs7,573 lbGeorge M
2020-06-23AAL1969KPHX KORD KPHX WIVLA HIRVU ZIDOG OXYGN ZILUB FORPE LALUZ SJN ABQ FTI KENTO DRAWL GCK SLN AGENT KIDER IRK KORD3.3 hrs3 hrs18,188 lbMichael Roth
2020-06-19AAL1083KPDX KPHX KPDX RIVRR COSUG HADIS WHAMY KOATA NEERO SLOWN BERYL CORKR TENTS KPHX2.6 hrs2.2 hrs13,203 lbMichael Roth
2020-06-18AAL1442KORD KPDX KORD MYKIE MONNY SMIDD FSD KD87Y KD90U KU03M JKNOX KPDX4.1 hrs3.8 hrs21,388 lbMichael Roth
2020-06-06AAL3419KTUS KORD KTUS BURRO VEYLE MESCA NOCHI SSO WOBUG GREBE TMACK ONM FTI KENTO DRAWL GCK SLN AGENT KIDER IRK LOAMY KEOKK DRAMS RYELY BDF BYLAW BENKY NEWRK AHSTN PETAH JORJO MONKZ TONIE RRUDA RW10C3.1 hrs2.9 hrs17,608 lbGeorge M